sensor_id;sensor_type;location;lat;lon;timestamp;P1;durP1;ratioP1;P2;durP2;ratioP2
49366;SDS011;35245;52.026;8.540;2023-07-31T00:00:17;2.75;;;0.93;;
49366;SDS011;35245;52.026;8.540;2023-07-31T00:02:44;0.70;;;0.63;;
49366;SDS011;35245;52.026;8.540;2023-07-31T00:05:11;1.45;;;0.90;;
49366;SDS011;35245;52.026;8.540;2023-07-31T00:07:38;1.02;;;0.90;;
49366;SDS011;35245;52.026;8.540;2023-07-31T00:10:06;1.45;;;0.90;;
49366;SDS011;35245;52.026;8.540;2023-07-31T00:12:34;2.60;;;1.55;;
49366;SDS011;35245;52.026;8.540;2023-07-31T00:15:02;3.97;;;1.60;;
49366;SDS011;35245;52.026;8.540;2023-07-31T00:17:31;1.52;;;1.42;;
49366;SDS011;35245;52.026;8.540;2023-07-31T00:19:58;2.30;;;1.83;;
49366;SDS011;35245;52.026;8.540;2023-07-31T00:22:25;2.67;;;2.03;;
49366;SDS011;35245;52.026;8.540;2023-07-31T00:24:52;3.33;;;2.42;;
49366;SDS011;35245;52.026;8.540;2023-07-31T00:27:19;3.13;;;2.17;;
49366;SDS011;35245;52.026;8.540;2023-07-31T00:29:46;2.97;;;2.55;;
49366;SDS011;35245;52.026;8.540;2023-07-31T00:32:15;2.80;;;2.20;;
49366;SDS011;35245;52.026;8.540;2023-07-31T00:34:42;4.25;;;2.72;;
49366;SDS011;35245;52.026;8.540;2023-07-31T00:37:09;2.90;;;2.67;;
49366;SDS011;35245;52.026;8.540;2023-07-31T00:39:36;5.57;;;3.30;;
49366;SDS011;35245;52.026;8.540;2023-07-31T00:42:04;3.13;;;2.58;;
49366;SDS011;35245;52.026;8.540;2023-07-31T00:44:32;4.22;;;3.08;;
49366;SDS011;35245;52.026;8.540;2023-07-31T00:46:59;5.57;;;2.95;;
49366;SDS011;35245;52.026;8.540;2023-07-31T00:49:28;3.20;;;2.90;;
49366;SDS011;35245;52.026;8.540;2023-07-31T00:51:55;4.43;;;3.65;;
49366;SDS011;35245;52.026;8.540;2023-07-31T00:54:23;5.43;;;3.42;;
49366;SDS011;35245;52.026;8.540;2023-07-31T00:56:50;4.85;;;3.35;;
49366;SDS011;35245;52.026;8.540;2023-07-31T00:59:20;5.05;;;3.20;;
49366;SDS011;35245;52.026;8.540;2023-07-31T01:01:47;3.35;;;3.05;;
49366;SDS011;35245;52.026;8.540;2023-07-31T01:04:15;3.88;;;2.75;;
49366;SDS011;35245;52.026;8.540;2023-07-31T01:06:47;3.45;;;2.90;;
49366;SDS011;35245;52.026;8.540;2023-07-31T01:09:24;5.00;;;2.88;;
49366;SDS011;35245;52.026;8.540;2023-07-31T01:12:01;5.80;;;3.50;;
49366;SDS011;35245;52.026;8.540;2023-07-31T01:14:30;6.13;;;4.03;;
49366;SDS011;35245;52.026;8.540;2023-07-31T01:16:57;5.32;;;3.80;;
49366;SDS011;35245;52.026;8.540;2023-07-31T01:19:25;5.30;;;3.70;;
49366;SDS011;35245;52.026;8.540;2023-07-31T01:21:58;7.50;;;4.63;;
49366;SDS011;35245;52.026;8.540;2023-07-31T01:24:45;6.65;;;3.85;;
49366;SDS011;35245;52.026;8.540;2023-07-31T01:27:28;6.28;;;3.83;;
49366;SDS011;35245;52.026;8.540;2023-07-31T01:30:03;5.72;;;3.70;;
49366;SDS011;35245;52.026;8.540;2023-07-31T01:32:40;6.63;;;3.90;;
49366;SDS011;35245;52.026;8.540;2023-07-31T01:35:08;4.85;;;3.63;;
49366;SDS011;35245;52.026;8.540;2023-07-31T01:37:36;3.55;;;2.83;;
49366;SDS011;35245;52.026;8.540;2023-07-31T01:40:04;4.93;;;2.83;;
49366;SDS011;35245;52.026;8.540;2023-07-31T01:42:34;4.50;;;2.75;;
49366;SDS011;35245;52.026;8.540;2023-07-31T01:45:02;5.32;;;2.60;;
49366;SDS011;35245;52.026;8.540;2023-07-31T01:47:29;4.05;;;2.45;;
49366;SDS011;35245;52.026;8.540;2023-07-31T01:49:56;3.15;;;2.03;;
49366;SDS011;35245;52.026;8.540;2023-07-31T01:52:24;2.50;;;2.08;;
49366;SDS011;35245;52.026;8.540;2023-07-31T01:54:51;3.67;;;2.47;;
49366;SDS011;35245;52.026;8.540;2023-07-31T01:57:18;3.00;;;1.90;;
49366;SDS011;35245;52.026;8.540;2023-07-31T01:59:47;2.75;;;2.00;;
49366;SDS011;35245;52.026;8.540;2023-07-31T02:02:14;2.83;;;1.95;;
49366;SDS011;35245;52.026;8.540;2023-07-31T02:04:42;3.00;;;2.05;;
49366;SDS011;35245;52.026;8.540;2023-07-31T02:07:09;3.10;;;2.20;;
49366;SDS011;35245;52.026;8.540;2023-07-31T02:09:36;2.67;;;1.90;;
49366;SDS011;35245;52.026;8.540;2023-07-31T02:12:04;3.33;;;2.03;;
49366;SDS011;35245;52.026;8.540;2023-07-31T02:14:33;2.15;;;1.65;;
49366;SDS011;35245;52.026;8.540;2023-07-31T02:17:02;4.30;;;1.80;;
49366;SDS011;35245;52.026;8.540;2023-07-31T02:19:29;2.47;;;1.77;;
49366;SDS011;35245;52.026;8.540;2023-07-31T02:21:56;2.35;;;1.90;;
49366;SDS011;35245;52.026;8.540;2023-07-31T02:24:23;2.40;;;1.77;;
49366;SDS011;35245;52.026;8.540;2023-07-31T02:26:51;1.95;;;1.50;;
49366;SDS011;35245;52.026;8.540;2023-07-31T02:29:18;2.65;;;1.77;;
49366;SDS011;35245;52.026;8.540;2023-07-31T02:31:45;2.33;;;1.52;;
49366;SDS011;35245;52.026;8.540;2023-07-31T02:34:13;2.30;;;2.03;;
49366;SDS011;35245;52.026;8.540;2023-07-31T02:36:40;2.80;;;1.70;;
49366;SDS011;35245;52.026;8.540;2023-07-31T02:39:07;3.15;;;1.98;;
49366;SDS011;35245;52.026;8.540;2023-07-31T02:41:34;4.30;;;2.28;;
49366;SDS011;35245;52.026;8.540;2023-07-31T02:44:02;2.55;;;1.60;;
49366;SDS011;35245;52.026;8.540;2023-07-31T02:46:29;1.95;;;0.85;;
49366;SDS011;35245;52.026;8.540;2023-07-31T02:48:56;1.83;;;1.20;;
49366;SDS011;35245;52.026;8.540;2023-07-31T02:51:25;1.50;;;1.13;;
49366;SDS011;35245;52.026;8.540;2023-07-31T02:53:52;2.08;;;1.10;;
49366;SDS011;35245;52.026;8.540;2023-07-31T02:56:19;1.02;;;0.90;;
49366;SDS011;35245;52.026;8.540;2023-07-31T02:58:46;2.15;;;0.65;;
49366;SDS011;35245;52.026;8.540;2023-07-31T03:01:13;1.05;;;0.65;;
49366;SDS011;35245;52.026;8.540;2023-07-31T03:03:41;2.20;;;0.75;;
49366;SDS011;35245;52.026;8.540;2023-07-31T03:06:08;2.05;;;1.05;;
49366;SDS011;35245;52.026;8.540;2023-07-31T03:08:36;0.80;;;0.80;;
49366;SDS011;35245;52.026;8.540;2023-07-31T03:11:03;2.42;;;1.33;;
49366;SDS011;35245;52.026;8.540;2023-07-31T03:13:30;2.10;;;1.55;;
49366;SDS011;35245;52.026;8.540;2023-07-31T03:15:58;3.17;;;2.72;;
49366;SDS011;35245;52.026;8.540;2023-07-31T03:18:25;4.20;;;3.60;;
49366;SDS011;35245;52.026;8.540;2023-07-31T03:20:52;5.25;;;4.32;;
49366;SDS011;35245;52.026;8.540;2023-07-31T03:23:19;7.03;;;5.22;;
49366;SDS011;35245;52.026;8.540;2023-07-31T03:25:57;9.60;;;5.65;;
49366;SDS011;35245;52.026;8.540;2023-07-31T03:28:25;10.23;;;6.65;;
49366;SDS011;35245;52.026;8.540;2023-07-31T03:30:52;11.20;;;8.75;;
49366;SDS011;35245;52.026;8.540;2023-07-31T03:33:19;13.52;;;9.30;;
49366;SDS011;35245;52.026;8.540;2023-07-31T03:35:46;15.35;;;10.02;;
49366;SDS011;35245;52.026;8.540;2023-07-31T03:38:13;17.00;;;11.07;;
49366;SDS011;35245;52.026;8.540;2023-07-31T03:40:41;19.75;;;12.02;;
49366;SDS011;35245;52.026;8.540;2023-07-31T03:43:09;22.92;;;13.07;;
49366;SDS011;35245;52.026;8.540;2023-07-31T03:45:36;16.67;;;11.80;;
49366;SDS011;35245;52.026;8.540;2023-07-31T03:48:04;23.15;;;13.60;;
49366;SDS011;35245;52.026;8.540;2023-07-31T03:50:32;22.60;;;13.50;;
49366;SDS011;35245;52.026;8.540;2023-07-31T03:53:00;21.58;;;12.75;;
49366;SDS011;35245;52.026;8.540;2023-07-31T03:55:27;20.50;;;13.48;;
49366;SDS011;35245;52.026;8.540;2023-07-31T03:57:54;23.00;;;14.43;;
49366;SDS011;35245;52.026;8.540;2023-07-31T04:00:23;25.77;;;14.95;;
49366;SDS011;35245;52.026;8.540;2023-07-31T04:02:50;25.80;;;15.55;;
49366;SDS011;35245;52.026;8.540;2023-07-31T04:05:17;20.85;;;13.52;;
49366;SDS011;35245;52.026;8.540;2023-07-31T04:07:44;26.65;;;15.05;;
49366;SDS011;35245;52.026;8.540;2023-07-31T04:10:11;26.45;;;14.50;;
49366;SDS011;35245;52.026;8.540;2023-07-31T04:12:38;24.88;;;14.52;;
49366;SDS011;35245;52.026;8.540;2023-07-31T04:15:06;22.45;;;14.25;;
49366;SDS011;35245;52.026;8.540;2023-07-31T04:17:35;23.58;;;16.35;;
49366;SDS011;35245;52.026;8.540;2023-07-31T04:20:02;23.92;;;15.25;;
49366;SDS011;35245;52.026;8.540;2023-07-31T04:22:31;30.85;;;16.95;;
49366;SDS011;35245;52.026;8.540;2023-07-31T04:24:58;22.77;;;14.82;;
49366;SDS011;35245;52.026;8.540;2023-07-31T04:27:25;23.90;;;16.15;;
49366;SDS011;35245;52.026;8.540;2023-07-31T04:29:52;22.65;;;14.80;;
49366;SDS011;35245;52.026;8.540;2023-07-31T04:32:19;24.20;;;13.98;;
49366;SDS011;35245;52.026;8.540;2023-07-31T04:34:48;21.60;;;13.85;;
49366;SDS011;35245;52.026;8.540;2023-07-31T04:37:15;25.52;;;14.18;;
49366;SDS011;35245;52.026;8.540;2023-07-31T04:39:42;19.02;;;13.30;;
49366;SDS011;35245;52.026;8.540;2023-07-31T04:42:09;23.05;;;12.98;;
49366;SDS011;35245;52.026;8.540;2023-07-31T04:44:36;22.48;;;13.35;;
49366;SDS011;35245;52.026;8.540;2023-07-31T04:47:04;19.20;;;12.43;;
49366;SDS011;35245;52.026;8.540;2023-07-31T04:49:31;23.63;;;13.38;;
49366;SDS011;35245;52.026;8.540;2023-07-31T04:51:59;20.45;;;12.38;;
49366;SDS011;35245;52.026;8.540;2023-07-31T04:54:27;23.13;;;12.77;;
49366;SDS011;35245;52.026;8.540;2023-07-31T04:56:54;21.13;;;12.02;;
49366;SDS011;35245;52.026;8.540;2023-07-31T04:59:21;22.02;;;12.60;;
49366;SDS011;35245;52.026;8.540;2023-07-31T05:01:48;21.70;;;11.35;;
49366;SDS011;35245;52.026;8.540;2023-07-31T05:04:15;17.13;;;10.90;;
49366;SDS011;35245;52.026;8.540;2023-07-31T05:06:43;20.10;;;11.07;;
49366;SDS011;35245;52.026;8.540;2023-07-31T05:09:11;17.70;;;10.88;;
49366;SDS011;35245;52.026;8.540;2023-07-31T05:11:38;19.10;;;10.45;;
49366;SDS011;35245;52.026;8.540;2023-07-31T05:14:07;22.10;;;10.00;;
49366;SDS011;35245;52.026;8.540;2023-07-31T05:16:35;18.48;;;9.85;;
49366;SDS011;35245;52.026;8.540;2023-07-31T05:19:02;16.20;;;9.30;;
49366;SDS011;35245;52.026;8.540;2023-07-31T05:21:29;20.23;;;8.88;;
49366;SDS011;35245;52.026;8.540;2023-07-31T05:23:56;16.92;;;8.82;;
49366;SDS011;35245;52.026;8.540;2023-07-31T05:26:25;18.58;;;8.30;;
49366;SDS011;35245;52.026;8.540;2023-07-31T05:28:52;17.30;;;8.32;;
49366;SDS011;35245;52.026;8.540;2023-07-31T05:31:19;19.40;;;8.55;;
49366;SDS011;35245;52.026;8.540;2023-07-31T05:33:47;19.65;;;8.35;;
49366;SDS011;35245;52.026;8.540;2023-07-31T05:36:15;17.58;;;8.00;;
49366;SDS011;35245;52.026;8.540;2023-07-31T05:38:43;19.45;;;7.95;;
49366;SDS011;35245;52.026;8.540;2023-07-31T05:41:10;14.98;;;7.15;;
49366;SDS011;35245;52.026;8.540;2023-07-31T05:43:39;20.95;;;7.82;;
49366;SDS011;35245;52.026;8.540;2023-07-31T05:46:06;19.52;;;7.97;;
49366;SDS011;35245;52.026;8.540;2023-07-31T05:48:34;13.13;;;6.63;;
49366;SDS011;35245;52.026;8.540;2023-07-31T05:51:01;19.25;;;7.47;;
49366;SDS011;35245;52.026;8.540;2023-07-31T05:53:28;19.30;;;8.50;;
49366;SDS011;35245;52.026;8.540;2023-07-31T05:55:55;19.77;;;8.55;;
49366;SDS011;35245;52.026;8.540;2023-07-31T05:58:22;23.67;;;7.78;;
49366;SDS011;35245;52.026;8.540;2023-07-31T06:00:51;19.55;;;8.13;;
49366;SDS011;35245;52.026;8.540;2023-07-31T06:03:18;17.35;;;8.07;;
49366;SDS011;35245;52.026;8.540;2023-07-31T06:05:45;24.52;;;8.10;;
49366;SDS011;35245;52.026;8.540;2023-07-31T06:08:12;16.88;;;7.93;;
49366;SDS011;35245;52.026;8.540;2023-07-31T06:10:39;18.65;;;7.88;;
49366;SDS011;35245;52.026;8.540;2023-07-31T06:13:06;17.73;;;7.30;;
49366;SDS011;35245;52.026;8.540;2023-07-31T06:15:34;21.65;;;8.23;;
49366;SDS011;35245;52.026;8.540;2023-07-31T06:18:02;18.35;;;7.80;;
49366;SDS011;35245;52.026;8.540;2023-07-31T06:20:32;16.20;;;7.38;;
49366;SDS011;35245;52.026;8.540;2023-07-31T06:23:00;18.75;;;8.25;;
49366;SDS011;35245;52.026;8.540;2023-07-31T06:25:28;19.98;;;7.80;;
49366;SDS011;35245;52.026;8.540;2023-07-31T06:27:56;18.02;;;7.28;;
49366;SDS011;35245;52.026;8.540;2023-07-31T06:30:23;20.13;;;7.05;;
49366;SDS011;35245;52.026;8.540;2023-07-31T06:32:50;15.52;;;7.28;;
49366;SDS011;35245;52.026;8.540;2023-07-31T06:35:18;18.58;;;7.35;;
49366;SDS011;35245;52.026;8.540;2023-07-31T06:37:46;11.90;;;6.85;;
49366;SDS011;35245;52.026;8.540;2023-07-31T06:40:13;17.40;;;7.22;;
49366;SDS011;35245;52.026;8.540;2023-07-31T06:42:40;17.85;;;7.25;;
49366;SDS011;35245;52.026;8.540;2023-07-31T06:45:08;21.90;;;7.65;;
49366;SDS011;35245;52.026;8.540;2023-07-31T06:47:36;17.70;;;7.63;;
49366;SDS011;35245;52.026;8.540;2023-07-31T06:50:04;15.95;;;6.95;;
49366;SDS011;35245;52.026;8.540;2023-07-31T06:52:33;19.58;;;7.25;;
49366;SDS011;35245;52.026;8.540;2023-07-31T06:55:01;18.08;;;7.13;;
49366;SDS011;35245;52.026;8.540;2023-07-31T06:57:29;17.48;;;7.38;;
49366;SDS011;35245;52.026;8.540;2023-07-31T06:59:57;22.23;;;7.93;;
49366;SDS011;35245;52.026;8.540;2023-07-31T07:02:24;17.65;;;7.63;;
49366;SDS011;35245;52.026;8.540;2023-07-31T07:04:51;19.52;;;7.38;;
49366;SDS011;35245;52.026;8.540;2023-07-31T07:07:18;18.00;;;7.63;;
49366;SDS011;35245;52.026;8.540;2023-07-31T07:09:46;17.95;;;8.02;;
49366;SDS011;35245;52.026;8.540;2023-07-31T07:12:13;16.80;;;7.95;;
49366;SDS011;35245;52.026;8.540;2023-07-31T07:14:40;16.25;;;7.25;;
49366;SDS011;35245;52.026;8.540;2023-07-31T07:17:08;19.60;;;8.43;;
49366;SDS011;35245;52.026;8.540;2023-07-31T07:19:35;16.98;;;7.32;;
49366;SDS011;35245;52.026;8.540;2023-07-31T07:22:02;20.40;;;7.32;;
49366;SDS011;35245;52.026;8.540;2023-07-31T07:24:29;18.60;;;7.95;;
49366;SDS011;35245;52.026;8.540;2023-07-31T07:26:58;15.10;;;7.68;;
49366;SDS011;35245;52.026;8.540;2023-07-31T07:29:25;21.15;;;8.73;;
49366;SDS011;35245;52.026;8.540;2023-07-31T07:31:52;15.65;;;7.60;;
49366;SDS011;35245;52.026;8.540;2023-07-31T07:34:19;19.23;;;7.85;;
49366;SDS011;35245;52.026;8.540;2023-07-31T07:36:48;20.13;;;8.15;;
49366;SDS011;35245;52.026;8.540;2023-07-31T07:39:15;18.25;;;8.18;;
49366;SDS011;35245;52.026;8.540;2023-07-31T07:41:43;15.68;;;8.35;;
49366;SDS011;35245;52.026;8.540;2023-07-31T07:44:11;19.30;;;9.00;;
49366;SDS011;35245;52.026;8.540;2023-07-31T07:46:39;16.85;;;8.57;;
49366;SDS011;35245;52.026;8.540;2023-07-31T07:49:06;18.20;;;8.73;;
49366;SDS011;35245;52.026;8.540;2023-07-31T07:51:33;18.70;;;9.02;;
49366;SDS011;35245;52.026;8.540;2023-07-31T07:54:00;18.13;;;8.68;;
49366;SDS011;35245;52.026;8.540;2023-07-31T07:56:27;18.38;;;8.23;;
49366;SDS011;35245;52.026;8.540;2023-07-31T07:58:54;17.33;;;7.97;;
49366;SDS011;35245;52.026;8.540;2023-07-31T08:01:23;18.70;;;8.68;;
49366;SDS011;35245;52.026;8.540;2023-07-31T08:03:51;16.90;;;8.45;;
49366;SDS011;35245;52.026;8.540;2023-07-31T08:06:18;15.77;;;8.70;;
49366;SDS011;35245;52.026;8.540;2023-07-31T08:08:45;12.63;;;7.70;;
49366;SDS011;35245;52.026;8.540;2023-07-31T08:11:12;12.15;;;6.93;;
49366;SDS011;35245;52.026;8.540;2023-07-31T08:13:39;13.27;;;6.78;;
49366;SDS011;35245;52.026;8.540;2023-07-31T08:16:06;11.90;;;7.07;;
49366;SDS011;35245;52.026;8.540;2023-07-31T08:18:35;11.63;;;6.45;;
49366;SDS011;35245;52.026;8.540;2023-07-31T08:21:02;10.30;;;6.47;;
49366;SDS011;35245;52.026;8.540;2023-07-31T08:23:29;11.68;;;6.30;;
49366;SDS011;35245;52.026;8.540;2023-07-31T08:25:57;8.85;;;5.90;;
49366;SDS011;35245;52.026;8.540;2023-07-31T08:28:24;9.27;;;6.00;;
49366;SDS011;35245;52.026;8.540;2023-07-31T08:30:52;25.83;;;8.82;;
49366;SDS011;35245;52.026;8.540;2023-07-31T08:33:19;15.82;;;7.07;;
49366;SDS011;35245;52.026;8.540;2023-07-31T08:35:47;18.20;;;6.97;;
49366;SDS011;35245;52.026;8.540;2023-07-31T08:38:14;11.27;;;6.43;;
49366;SDS011;35245;52.026;8.540;2023-07-31T08:40:42;16.17;;;7.40;;
49366;SDS011;35245;52.026;8.540;2023-07-31T08:43:09;15.55;;;6.85;;
49366;SDS011;35245;52.026;8.540;2023-07-31T08:45:37;9.98;;;6.15;;
49366;SDS011;35245;52.026;8.540;2023-07-31T08:48:07;12.93;;;6.67;;
49366;SDS011;35245;52.026;8.540;2023-07-31T08:50:34;11.55;;;6.72;;
49366;SDS011;35245;52.026;8.540;2023-07-31T08:53:03;12.00;;;7.30;;
49366;SDS011;35245;52.026;8.540;2023-07-31T08:55:30;11.68;;;7.00;;
49366;SDS011;35245;52.026;8.540;2023-07-31T08:57:58;11.90;;;6.65;;
49366;SDS011;35245;52.026;8.540;2023-07-31T09:00:28;10.98;;;6.55;;
49366;SDS011;35245;52.026;8.540;2023-07-31T09:02:57;8.77;;;6.05;;
49366;SDS011;35245;52.026;8.540;2023-07-31T09:05:29;10.20;;;5.70;;
49366;SDS011;35245;52.026;8.540;2023-07-31T09:07:57;10.55;;;5.97;;
49366;SDS011;35245;52.026;8.540;2023-07-31T09:10:27;9.48;;;6.03;;
49366;SDS011;35245;52.026;8.540;2023-07-31T09:12:54;9.65;;;6.00;;
49366;SDS011;35245;52.026;8.540;2023-07-31T09:15:23;10.10;;;5.85;;
49366;SDS011;35245;52.026;8.540;2023-07-31T09:17:58;13.13;;;6.10;;
49366;SDS011;35245;52.026;8.540;2023-07-31T09:20:28;12.27;;;6.60;;
49366;SDS011;35245;52.026;8.540;2023-07-31T09:22:56;9.85;;;6.80;;
49366;SDS011;35245;52.026;8.540;2023-07-31T09:25:32;11.20;;;6.82;;
49366;SDS011;35245;52.026;8.540;2023-07-31T09:28:01;9.93;;;5.72;;
49366;SDS011;35245;52.026;8.540;2023-07-31T09:30:30;11.07;;;6.75;;
49366;SDS011;35245;52.026;8.540;2023-07-31T09:33:09;11.43;;;6.50;;
49366;SDS011;35245;52.026;8.540;2023-07-31T09:35:36;11.38;;;5.80;;
49366;SDS011;35245;52.026;8.540;2023-07-31T09:38:06;9.20;;;5.38;;
49366;SDS011;35245;52.026;8.540;2023-07-31T09:40:37;9.07;;;6.65;;
49366;SDS011;35245;52.026;8.540;2023-07-31T09:43:05;10.27;;;5.63;;
49366;SDS011;35245;52.026;8.540;2023-07-31T09:45:36;8.98;;;6.13;;
49366;SDS011;35245;52.026;8.540;2023-07-31T09:48:06;9.40;;;5.97;;
49366;SDS011;35245;52.026;8.540;2023-07-31T09:50:36;9.90;;;5.75;;
49366;SDS011;35245;52.026;8.540;2023-07-31T09:53:04;8.68;;;5.53;;
49366;SDS011;35245;52.026;8.540;2023-07-31T09:55:32;9.00;;;5.70;;
49366;SDS011;35245;52.026;8.540;2023-07-31T09:58:03;9.95;;;5.47;;
49366;SDS011;35245;52.026;8.540;2023-07-31T10:00:32;7.55;;;4.97;;
49366;SDS011;35245;52.026;8.540;2023-07-31T10:03:01;9.15;;;5.90;;
49366;SDS011;35245;52.026;8.540;2023-07-31T10:05:32;9.73;;;5.10;;
49366;SDS011;35245;52.026;8.540;2023-07-31T10:08:02;6.97;;;5.13;;
49366;SDS011;35245;52.026;8.540;2023-07-31T10:10:32;8.15;;;4.75;;
49366;SDS011;35245;52.026;8.540;2023-07-31T10:13:03;7.22;;;4.57;;
49366;SDS011;35245;52.026;8.540;2023-07-31T10:15:31;8.82;;;5.07;;
49366;SDS011;35245;52.026;8.540;2023-07-31T10:17:59;10.60;;;5.13;;
49366;SDS011;35245;52.026;8.540;2023-07-31T10:20:27;7.45;;;4.75;;
49366;SDS011;35245;52.026;8.540;2023-07-31T10:22:55;9.73;;;5.75;;
49366;SDS011;35245;52.026;8.540;2023-07-31T10:25:24;6.90;;;4.45;;
49366;SDS011;35245;52.026;8.540;2023-07-31T10:27:53;8.20;;;4.78;;
49366;SDS011;35245;52.026;8.540;2023-07-31T10:30:24;9.98;;;4.85;;
49366;SDS011;35245;52.026;8.540;2023-07-31T10:32:54;6.47;;;4.72;;
49366;SDS011;35245;52.026;8.540;2023-07-31T10:35:22;7.97;;;4.63;;
49366;SDS011;35245;52.026;8.540;2023-07-31T10:37:49;9.25;;;5.55;;
49366;SDS011;35245;52.026;8.540;2023-07-31T10:40:19;7.28;;;4.30;;
49366;SDS011;35245;52.026;8.540;2023-07-31T10:42:51;6.38;;;3.60;;
49366;SDS011;35245;52.026;8.540;2023-07-31T10:45:25;4.85;;;3.30;;
49366;SDS011;35245;52.026;8.540;2023-07-31T10:47:59;7.53;;;3.50;;
49366;SDS011;35245;52.026;8.540;2023-07-31T10:50:27;6.05;;;2.95;;
49366;SDS011;35245;52.026;8.540;2023-07-31T10:52:57;4.33;;;3.30;;
49366;SDS011;35245;52.026;8.540;2023-07-31T10:55:27;4.38;;;2.78;;
49366;SDS011;35245;52.026;8.540;2023-07-31T10:57:57;4.53;;;2.75;;
49366;SDS011;35245;52.026;8.540;2023-07-31T11:00:36;5.10;;;3.10;;
49366;SDS011;35245;52.026;8.540;2023-07-31T11:03:05;5.00;;;3.10;;
49366;SDS011;35245;52.026;8.540;2023-07-31T11:05:44;6.80;;;3.17;;
49366;SDS011;35245;52.026;8.540;2023-07-31T11:08:13;5.32;;;3.03;;
49366;SDS011;35245;52.026;8.540;2023-07-31T11:10:44;5.05;;;3.15;;
49366;SDS011;35245;52.026;8.540;2023-07-31T11:13:12;4.63;;;3.15;;
49366;SDS011;35245;52.026;8.540;2023-07-31T11:15:41;4.22;;;2.47;;
49366;SDS011;35245;52.026;8.540;2023-07-31T11:18:08;7.03;;;3.17;;
49366;SDS011;35245;52.026;8.540;2023-07-31T11:20:37;4.72;;;3.13;;
49366;SDS011;35245;52.026;8.540;2023-07-31T11:23:06;4.07;;;3.00;;
49366;SDS011;35245;52.026;8.540;2023-07-31T11:25:36;5.10;;;3.22;;
49366;SDS011;35245;52.026;8.540;2023-07-31T11:28:05;5.53;;;3.22;;
49366;SDS011;35245;52.026;8.540;2023-07-31T11:30:34;5.13;;;3.22;;
49366;SDS011;35245;52.026;8.540;2023-07-31T11:33:04;4.15;;;3.03;;
49366;SDS011;35245;52.026;8.540;2023-07-31T11:35:32;4.03;;;3.13;;
49366;SDS011;35245;52.026;8.540;2023-07-31T11:38:01;6.72;;;3.28;;
49366;SDS011;35245;52.026;8.540;2023-07-31T11:40:28;16.42;;;10.25;;
49366;SDS011;35245;52.026;8.540;2023-07-31T11:42:56;3.97;;;2.85;;
49366;SDS011;35245;52.026;8.540;2023-07-31T11:45:24;5.25;;;3.20;;
49366;SDS011;35245;52.026;8.540;2023-07-31T11:47:54;5.63;;;3.30;;
49366;SDS011;35245;52.026;8.540;2023-07-31T11:50:23;5.43;;;3.67;;
49366;SDS011;35245;52.026;8.540;2023-07-31T11:52:52;4.18;;;3.38;;
49366;SDS011;35245;52.026;8.540;2023-07-31T11:55:22;8.23;;;6.80;;
49366;SDS011;35245;52.026;8.540;2023-07-31T11:57:50;3.90;;;3.28;;
49366;SDS011;35245;52.026;8.540;2023-07-31T12:00:19;8.00;;;3.63;;
49366;SDS011;35245;52.026;8.540;2023-07-31T12:02:46;5.13;;;3.20;;
49366;SDS011;35245;52.026;8.540;2023-07-31T12:05:14;4.35;;;3.50;;
49366;SDS011;35245;52.026;8.540;2023-07-31T12:07:46;3.40;;;2.83;;
49366;SDS011;35245;52.026;8.540;2023-07-31T12:10:22;4.13;;;3.00;;
49366;SDS011;35245;52.026;8.540;2023-07-31T12:12:55;6.05;;;3.15;;
49366;SDS011;35245;52.026;8.540;2023-07-31T12:15:32;5.40;;;3.35;;
49366;SDS011;35245;52.026;8.540;2023-07-31T12:18:04;4.18;;;3.38;;
49366;SDS011;35245;52.026;8.540;2023-07-31T12:20:33;5.03;;;3.60;;
49366;SDS011;35245;52.026;8.540;2023-07-31T12:23:02;7.10;;;3.67;;
49366;SDS011;35245;52.026;8.540;2023-07-31T12:25:30;2.83;;;2.53;;
49366;SDS011;35245;52.026;8.540;2023-07-31T12:28:03;5.13;;;3.08;;
49366;SDS011;35245;52.026;8.540;2023-07-31T12:30:36;4.55;;;2.88;;
49366;SDS011;35245;52.026;8.540;2023-07-31T12:33:04;5.57;;;3.28;;
49366;SDS011;35245;52.026;8.540;2023-07-31T12:35:36;6.15;;;3.20;;
49366;SDS011;35245;52.026;8.540;2023-07-31T12:38:07;6.07;;;3.53;;
49366;SDS011;35245;52.026;8.540;2023-07-31T12:40:36;4.88;;;3.53;;
49366;SDS011;35245;52.026;8.540;2023-07-31T12:43:05;5.72;;;3.03;;
49366;SDS011;35245;52.026;8.540;2023-07-31T12:45:32;4.68;;;3.35;;
49366;SDS011;35245;52.026;8.540;2023-07-31T12:48:00;5.20;;;3.63;;
49366;SDS011;35245;52.026;8.540;2023-07-31T12:50:28;3.78;;;3.38;;
49366;SDS011;35245;52.026;8.540;2023-07-31T12:52:55;5.25;;;3.40;;
49366;SDS011;35245;52.026;8.540;2023-07-31T12:55:24;4.03;;;3.63;;
49366;SDS011;35245;52.026;8.540;2023-07-31T12:57:51;5.00;;;4.07;;
49366;SDS011;35245;52.026;8.540;2023-07-31T13:00:18;6.20;;;4.75;;
49366;SDS011;35245;52.026;8.540;2023-07-31T13:02:45;6.65;;;5.28;;
49366;SDS011;35245;52.026;8.540;2023-07-31T13:05:12;7.47;;;6.00;;
49366;SDS011;35245;52.026;8.540;2023-07-31T13:07:40;7.60;;;5.75;;
49366;SDS011;35245;52.026;8.540;2023-07-31T13:10:07;12.18;;;6.63;;
49366;SDS011;35245;52.026;8.540;2023-07-31T13:12:36;8.48;;;6.40;;
49366;SDS011;35245;52.026;8.540;2023-07-31T13:15:04;9.70;;;6.75;;
49366;SDS011;35245;52.026;8.540;2023-07-31T13:17:33;7.65;;;5.93;;
49366;SDS011;35245;52.026;8.540;2023-07-31T13:20:01;8.18;;;6.32;;
49366;SDS011;35245;52.026;8.540;2023-07-31T13:22:29;9.13;;;6.18;;
49366;SDS011;35245;52.026;8.540;2023-07-31T13:24:57;9.20;;;4.93;;
49366;SDS011;35245;52.026;8.540;2023-07-31T13:27:24;8.15;;;5.35;;
49366;SDS011;35245;52.026;8.540;2023-07-31T13:29:53;9.02;;;4.85;;
49366;SDS011;35245;52.026;8.540;2023-07-31T13:32:20;6.82;;;4.20;;
49366;SDS011;35245;52.026;8.540;2023-07-31T13:34:48;7.57;;;4.65;;
49366;SDS011;35245;52.026;8.540;2023-07-31T13:37:15;7.78;;;4.50;;
49366;SDS011;35245;52.026;8.540;2023-07-31T13:39:42;7.40;;;4.05;;
49366;SDS011;35245;52.026;8.540;2023-07-31T13:42:10;6.80;;;4.40;;
49366;SDS011;35245;52.026;8.540;2023-07-31T13:44:37;7.60;;;4.38;;
49366;SDS011;35245;52.026;8.540;2023-07-31T13:47:07;7.72;;;4.10;;
49366;SDS011;35245;52.026;8.540;2023-07-31T13:49:35;6.22;;;3.63;;
49366;SDS011;35245;52.026;8.540;2023-07-31T13:52:04;5.38;;;4.20;;
49366;SDS011;35245;52.026;8.540;2023-07-31T13:54:31;5.82;;;4.47;;
49366;SDS011;35245;52.026;8.540;2023-07-31T13:56:58;8.13;;;4.43;;
49366;SDS011;35245;52.026;8.540;2023-07-31T13:59:26;5.13;;;4.10;;
49366;SDS011;35245;52.026;8.540;2023-07-31T14:01:53;7.20;;;4.03;;
49366;SDS011;35245;52.026;8.540;2023-07-31T14:04:22;4.82;;;3.72;;
49366;SDS011;35245;52.026;8.540;2023-07-31T14:06:49;7.65;;;4.55;;
49366;SDS011;35245;52.026;8.540;2023-07-31T14:09:16;4.50;;;3.60;;
49366;SDS011;35245;52.026;8.540;2023-07-31T14:11:43;4.60;;;3.63;;
49366;SDS011;35245;52.026;8.540;2023-07-31T14:14:11;6.18;;;4.13;;
49366;SDS011;35245;52.026;8.540;2023-07-31T14:16:38;7.53;;;3.78;;
49366;SDS011;35245;52.026;8.540;2023-07-31T14:19:06;5.15;;;3.97;;
49366;SDS011;35245;52.026;8.540;2023-07-31T14:21:35;7.13;;;4.28;;
49366;SDS011;35245;52.026;8.540;2023-07-31T14:24:02;4.55;;;4.00;;
49366;SDS011;35245;52.026;8.540;2023-07-31T14:26:30;6.03;;;4.18;;
49366;SDS011;35245;52.026;8.540;2023-07-31T14:28:57;4.90;;;3.95;;
49366;SDS011;35245;52.026;8.540;2023-07-31T14:31:24;7.10;;;4.32;;
49366;SDS011;35245;52.026;8.540;2023-07-31T14:33:52;4.90;;;3.78;;
49366;SDS011;35245;52.026;8.540;2023-07-31T14:36:19;6.07;;;3.90;;
49366;SDS011;35245;52.026;8.540;2023-07-31T14:38:47;4.82;;;3.88;;
49366;SDS011;35245;52.026;8.540;2023-07-31T14:41:14;5.95;;;4.20;;
49366;SDS011;35245;52.026;8.540;2023-07-31T14:43:41;5.95;;;4.35;;
49366;SDS011;35245;52.026;8.540;2023-07-31T14:46:09;6.30;;;4.63;;